createdAt,value
2023-03-30T00:01:35.440Z,73.90
2023-03-30T00:04:07.008Z,74.00
2023-03-30T00:06:39.379Z,73.78
2023-03-30T00:09:12.862Z,73.84
2023-03-30T00:11:43.831Z,73.79
2023-03-30T00:14:18.048Z,73.74
2023-03-30T00:16:48.349Z,75.07
2023-03-30T00:19:19.121Z,73.85
2023-03-30T00:21:50.052Z,73.60
2023-03-30T00:24:23.191Z,73.79
2023-03-30T00:26:53.892Z,73.62
2023-03-30T00:29:24.395Z,73.60
2023-03-30T00:31:55.577Z,73.44
2023-03-30T00:34:27.809Z,73.85
2023-03-30T00:36:58.507Z,73.68
2023-03-30T00:39:31.703Z,73.88
2023-03-30T00:42:02.192Z,74.07
2023-03-30T00:45:02.887Z,73.96
2023-03-30T00:47:33.749Z,74.05
2023-03-30T00:50:04.872Z,74.12
2023-03-30T00:52:37.433Z,74.07
2023-03-30T00:55:12.853Z,74.03
2023-03-30T00:57:47.025Z,74.22
2023-03-30T01:00:18.844Z,74.18
2023-03-30T01:02:56.162Z,73.97
2023-03-30T01:05:29.687Z,74.15
2023-03-30T01:08:02.192Z,74.07
2023-03-30T01:10:35.764Z,73.71
2023-03-30T01:13:07.661Z,73.92
2023-03-30T01:15:43.132Z,73.73
2023-03-30T01:18:27.812Z,73.55
2023-03-30T01:21:27.870Z,73.34
2023-03-30T01:24:42.950Z,73.13
2023-03-30T01:27:31.618Z,72.67
2023-03-30T01:30:25.181Z,72.70
2023-03-30T01:33:11.924Z,72.47
2023-03-30T01:36:17.985Z,72.62
2023-03-30T01:39:23.131Z,72.61
2023-03-30T01:42:01.748Z,72.67
2023-03-30T01:44:40.991Z,72.61
2023-03-30T01:47:20.362Z,72.81
2023-03-30T01:50:01.181Z,72.86
2023-03-30T01:52:41.476Z,72.62
2023-03-30T01:55:19.727Z,72.72
2023-03-30T01:57:56.287Z,72.67
2023-03-30T02:00:28.829Z,72.96
2023-03-30T02:03:05.758Z,72.81
2023-03-30T02:05:38.208Z,73.01
2023-03-30T02:08:13.820Z,73.13
2023-03-30T02:10:48.909Z,73.11
2023-03-30T02:13:20.919Z,73.14
2023-03-30T02:15:56.264Z,73.20
2023-03-30T02:18:27.279Z,73.07
2023-03-30T02:20:59.562Z,72.82
2023-03-30T02:23:38.423Z,72.90
2023-03-30T02:26:11.981Z,72.87
2023-03-30T02:28:42.958Z,72.70
2023-03-30T02:31:17.185Z,72.72
2023-03-30T02:34:03.930Z,72.58
2023-03-30T02:36:49.892Z,72.92
2023-03-30T02:39:31.010Z,72.88
2023-03-30T02:42:27.307Z,72.69
2023-03-30T02:45:12.251Z,72.80
2023-03-30T02:47:52.236Z,72.51
2023-03-30T02:50:33.850Z,72.10
2023-03-30T02:53:18.007Z,72.27
2023-03-30T02:56:00.820Z,72.11
2023-03-30T02:58:48.377Z,72.41
2023-03-30T03:01:28.589Z,72.10
2023-03-30T03:04:11.150Z,72.06
2023-03-30T03:06:53.104Z,72.05
2023-03-30T03:09:25.156Z,72.00
2023-03-30T03:11:56.158Z,71.98
2023-03-30T03:14:32.102Z,72.17
2023-03-30T03:17:02.919Z,72.01
2023-03-30T03:19:38.366Z,72.13
2023-03-30T03:22:09.234Z,72.01
2023-03-30T03:24:41.597Z,71.96
2023-03-30T03:27:34.180Z,72.00
2023-03-30T03:30:33.765Z,71.84
2023-03-30T03:33:11.524Z,71.93
2023-03-30T03:35:46.038Z,71.92
2023-03-30T03:38:17.353Z,71.86
2023-03-30T03:40:52.840Z,71.64
2023-03-30T03:43:23.627Z,71.74
2023-03-30T03:45:56.907Z,71.72
2023-03-30T03:48:28.253Z,71.45
2023-03-30T03:51:01.054Z,71.68
2023-03-30T03:53:36.479Z,71.28
2023-03-30T03:56:11.949Z,71.57
2023-03-30T03:58:42.643Z,71.48
2023-03-30T04:01:16.329Z,71.42
2023-03-30T04:03:46.965Z,71.52
2023-03-30T04:06:17.473Z,71.64
2023-03-30T04:08:48.125Z,71.38
2023-03-30T04:11:41.773Z,71.12
2023-03-30T04:14:31.040Z,71.22
2023-03-30T04:17:24.025Z,71.26
2023-03-30T04:20:06.096Z,71.39
2023-03-30T04:22:53.533Z,71.27
2023-03-30T04:25:58.410Z,71.21
2023-03-30T04:28:48.012Z,71.28
2023-03-30T04:31:35.091Z,71.47
2023-03-30T04:34:31.363Z,71.44
2023-03-30T04:37:30.420Z,71.55
2023-03-30T04:40:20.150Z,71.38
2023-03-30T04:43:14.669Z,71.36
2023-03-30T04:46:05.404Z,72.11
2023-03-30T04:49:01.952Z,71.30
2023-03-30T04:51:44.222Z,71.04
2023-03-30T04:54:36.065Z,70.92
2023-03-30T04:57:41.913Z,71.08
2023-03-30T05:00:31.938Z,70.98
2023-03-30T05:03:24.935Z,70.86
2023-03-30T05:06:22.248Z,70.93
2023-03-30T05:09:14.604Z,70.82
2023-03-30T05:12:08.672Z,70.73
2023-03-30T05:14:51.986Z,70.74
2023-03-30T05:17:51.903Z,70.79
2023-03-30T05:20:41.351Z,70.71
2023-03-30T05:23:35.268Z,70.75
2023-03-30T05:26:44.039Z,70.73
2023-03-30T05:29:33.115Z,70.85
2023-03-30T05:32:39.331Z,70.98
2023-03-30T05:35:34.573Z,70.89
2023-03-30T05:38:19.315Z,70.83
2023-03-30T05:41:14.311Z,70.63
2023-03-30T05:44:21.879Z,70.45
2023-03-30T05:47:12.086Z,70.17
2023-03-30T05:50:12.011Z,69.79
2023-03-30T05:52:56.793Z,69.75
2023-03-30T05:55:42.484Z,69.54
2023-03-30T05:58:39.786Z,69.38
2023-03-30T06:01:26.926Z,69.17
2023-03-30T06:04:00.689Z,68.77
2023-03-30T06:06:32.549Z,68.05
2023-03-30T06:09:04.487Z,67.57
2023-03-30T06:11:37.283Z,67.32
2023-03-30T06:14:23.732Z,67.18
2023-03-30T06:17:17.495Z,67.09
2023-03-30T06:19:49.281Z,67.25
2023-03-30T06:22:22.081Z,67.44
2023-03-30T06:25:08.064Z,67.53
2023-03-30T06:27:43.322Z,67.47
2023-03-30T06:30:18.314Z,67.42
2023-03-30T06:32:56.765Z,67.12
2023-03-30T06:35:29.619Z,66.76
2023-03-30T06:38:01.541Z,66.61
2023-03-30T06:40:33.423Z,66.59
2023-03-30T06:43:04.092Z,66.48
2023-03-30T06:45:44.102Z,66.88
2023-03-30T06:48:17.628Z,67.12
2023-03-30T06:50:49.033Z,67.41
2023-03-30T06:53:26.711Z,67.67
2023-03-30T06:55:59.851Z,67.71
2023-03-30T06:58:34.588Z,67.97
2023-03-30T07:01:13.470Z,68.10
2023-03-30T07:04:10.936Z,67.91
2023-03-30T07:07:01.696Z,67.97
2023-03-30T07:09:32.837Z,67.88
2023-03-30T07:12:03.924Z,67.83
2023-03-30T07:14:35.216Z,67.84
2023-03-30T07:17:08.044Z,67.82
2023-03-30T07:19:41.492Z,67.75
2023-03-30T07:22:12.882Z,67.72
2023-03-30T07:24:45.103Z,67.58
2023-03-30T07:27:16.449Z,67.58
2023-03-30T07:29:47.685Z,67.34
2023-03-30T07:32:20.037Z,67.22
2023-03-30T07:34:53.685Z,67.29
2023-03-30T07:37:24.983Z,67.19
2023-03-30T07:39:57.110Z,66.96
2023-03-30T07:42:27.988Z,66.78
2023-03-30T07:44:58.863Z,66.91
2023-03-30T07:47:29.718Z,66.72
2023-03-30T07:50:03.008Z,66.61
2023-03-30T07:52:34.409Z,66.25
2023-03-30T07:55:07.903Z,66.07
2023-03-30T07:57:47.373Z,66.34
2023-03-30T08:00:19.053Z,66.05
2023-03-30T08:03:08.513Z,65.76
2023-03-30T08:05:42.455Z,65.74
2023-03-30T08:08:23.001Z,65.72
2023-03-30T08:10:53.866Z,65.50
2023-03-30T08:13:24.875Z,65.27
2023-03-30T08:15:56.109Z,65.39
2023-03-30T08:18:28.991Z,65.25
2023-03-30T08:21:02.588Z,65.32
2023-03-30T08:23:33.771Z,65.04
2023-03-30T08:26:04.301Z,65.30
2023-03-30T08:28:35.176Z,65.70
2023-03-30T08:31:08.810Z,65.94
2023-03-30T08:33:39.757Z,65.59
2023-03-30T08:36:13.165Z,65.83
2023-03-30T08:38:45.422Z,65.64
2023-03-30T08:41:49.800Z,65.38
2023-03-30T08:44:31.942Z,65.34
2023-03-30T08:47:05.856Z,65.43
2023-03-30T08:49:41.928Z,64.94
2023-03-30T08:52:20.979Z,64.84
2023-03-30T08:54:52.463Z,65.59
2023-03-30T08:57:40.028Z,66.17
2023-03-30T09:00:23.164Z,66.04
2023-03-30T09:02:57.557Z,66.07
2023-03-30T09:05:35.230Z,65.64
2023-03-30T09:08:17.144Z,65.24
2023-03-30T09:10:52.690Z,65.26
2023-03-30T09:13:27.369Z,65.01
2023-03-30T09:16:04.014Z,64.70
2023-03-30T09:18:36.130Z,64.44
2023-03-30T09:21:09.099Z,64.50
2023-03-30T09:23:43.325Z,64.47
2023-03-30T09:26:20.685Z,62.71
2023-03-30T09:28:57.633Z,63.14
2023-03-30T09:31:34.238Z,62.72
2023-03-30T09:34:09.510Z,63.25
2023-03-30T09:36:47.418Z,63.90
2023-03-30T09:39:23.694Z,64.75
2023-03-30T09:42:11.689Z,65.90
2023-03-30T09:44:49.045Z,66.94
2023-03-30T09:47:27.084Z,67.38
2023-03-30T09:50:02.568Z,68.15
2023-03-30T09:52:37.280Z,68.79
2023-03-30T09:55:31.370Z,69.23
2023-03-30T09:58:15.185Z,70.51
2023-03-30T10:00:45.984Z,70.94
2023-03-30T10:03:24.397Z,71.20
2023-03-30T10:06:06.094Z,70.85
2023-03-30T10:08:46.247Z,70.32
2023-03-30T10:11:24.037Z,69.67
2023-03-30T10:13:55.250Z,69.31
2023-03-30T10:16:29.785Z,69.17
2023-03-30T10:19:03.964Z,69.28
2023-03-30T10:21:35.093Z,69.92
2023-03-30T10:24:08.457Z,68.33
2023-03-30T10:26:44.407Z,67.82
2023-03-30T10:29:16.750Z,67.80
2023-03-30T10:31:50.148Z,67.56
2023-03-30T10:34:23.875Z,67.21
2023-03-30T10:36:56.571Z,66.77
2023-03-30T10:39:32.456Z,67.04
2023-03-30T10:42:09.545Z,68.63
2023-03-30T10:44:44.524Z,71.68
2023-03-30T10:47:29.812Z,73.17
2023-03-30T10:50:10.519Z,74.83
2023-03-30T10:52:59.001Z,75.39
2023-03-30T10:55:37.103Z,75.90
2023-03-30T10:58:22.816Z,75.97
2023-03-30T11:01:14.706Z,75.91
2023-03-30T11:03:50.428Z,75.56
2023-03-30T11:06:25.085Z,74.73
2023-03-30T11:08:58.005Z,74.19
2023-03-30T11:11:36.779Z,73.55
2023-03-30T11:14:16.686Z,72.88
2023-03-30T11:16:53.804Z,72.33
2023-03-30T11:19:28.092Z,71.51
2023-03-30T11:22:06.644Z,70.71
2023-03-30T11:24:38.343Z,70.14
2023-03-30T11:27:17.419Z,69.63
2023-03-30T11:29:56.850Z,69.74
2023-03-30T11:32:36.055Z,69.45
2023-03-30T11:35:15.319Z,68.94
2023-03-30T11:37:52.868Z,68.72
2023-03-30T11:40:27.507Z,68.26
2023-03-30T11:42:58.682Z,68.01
2023-03-30T11:45:45.905Z,67.87
2023-03-30T11:48:41.760Z,67.36
2023-03-30T11:51:23.793Z,67.39
2023-03-30T11:54:03.063Z,66.84
2023-03-30T11:56:40.382Z,66.04
2023-03-30T11:59:20.504Z,65.83
2023-03-30T12:02:08.828Z,65.17
2023-03-30T12:04:45.592Z,64.72
2023-03-30T12:07:29.902Z,64.73
2023-03-30T12:10:06.721Z,64.98
2023-03-30T12:12:42.150Z,64.50
2023-03-30T12:15:19.375Z,61.53
2023-03-30T12:17:56.834Z,64.13
2023-03-30T12:20:42.545Z,63.35
2023-03-30T12:23:24.015Z,64.59
2023-03-30T12:26:10.677Z,64.56
2023-03-30T12:31:22.668Z,64.97
2023-03-30T12:34:08.515Z,63.97
2023-03-30T12:36:41.000Z,64.17
2023-03-30T12:39:22.058Z,63.71
2023-03-30T12:41:55.346Z,63.71
2023-03-30T12:44:39.244Z,64.12
2023-03-30T12:47:34.750Z,63.20
2023-03-30T12:50:26.457Z,63.33
2023-03-30T12:53:09.362Z,63.41
2023-03-30T12:55:48.930Z,63.28
2023-03-30T12:58:52.006Z,60.96
2023-03-30T13:01:47.296Z,61.69
2023-03-30T13:04:23.720Z,63.75
2023-03-30T13:07:01.178Z,64.58
2023-03-30T13:09:34.836Z,65.24
2023-03-30T13:12:32.926Z,64.10
2023-03-30T13:15:07.130Z,66.65
2023-03-30T13:17:52.765Z,61.17
2023-03-30T13:20:29.679Z,66.77
2023-03-30T13:23:27.786Z,66.08
2023-03-30T13:26:08.497Z,65.44
2023-03-30T13:29:03.065Z,64.55
2023-03-30T13:31:57.323Z,64.08
2023-03-30T13:35:03.591Z,63.49
2023-03-30T13:38:07.770Z,62.63
2023-03-30T13:43:39.115Z,62.96
2023-03-30T13:46:17.891Z,63.45
2023-03-30T13:49:00.211Z,64.31
2023-03-30T13:51:32.772Z,64.97
2023-03-30T13:54:06.642Z,65.45
2023-03-30T13:56:42.707Z,65.18
2023-03-30T13:59:17.158Z,64.23
2023-03-30T14:01:52.939Z,63.46
2023-03-30T14:04:24.173Z,63.35
2023-03-30T14:06:54.813Z,63.21
2023-03-30T14:09:27.792Z,63.59
2023-03-30T14:12:03.074Z,64.06
2023-03-30T14:14:39.382Z,63.67
2023-03-30T14:17:18.441Z,63.16
2023-03-30T14:20:07.863Z,62.26
2023-03-30T14:22:44.454Z,61.58
2023-03-30T14:25:28.564Z,61.98
2023-03-30T14:28:06.078Z,62.56
2023-03-30T14:30:36.991Z,62.85
2023-03-30T14:33:09.838Z,62.39
2023-03-30T14:35:45.170Z,62.29
2023-03-30T14:38:19.358Z,62.41
2023-03-30T14:40:50.866Z,62.79
2023-03-30T14:43:27.464Z,62.93
2023-03-30T14:46:02.109Z,63.27
2023-03-30T14:48:35.115Z,63.84
2023-03-30T14:51:07.940Z,64.29
2023-03-30T14:53:38.829Z,64.79
2023-03-30T14:56:10.518Z,64.72
2023-03-30T14:58:44.699Z,64.75
2023-03-30T15:01:20.690Z,64.44
2023-03-30T15:03:52.162Z,63.99
2023-03-30T15:06:26.915Z,63.92
2023-03-30T15:09:04.330Z,63.24
2023-03-30T15:11:38.759Z,63.02
2023-03-30T15:14:18.964Z,62.99
2023-03-30T15:16:53.872Z,62.65
2023-03-30T15:19:32.911Z,62.89
2023-03-30T15:22:06.386Z,63.10
2023-03-30T15:24:39.676Z,63.21
2023-03-30T15:27:12.485Z,62.88
2023-03-30T15:29:47.357Z,62.72
2023-03-30T15:32:20.050Z,62.71
2023-03-30T15:35:08.623Z,62.47
2023-03-30T15:37:40.160Z,63.26
2023-03-30T15:40:34.266Z,62.26
2023-03-30T15:43:23.248Z,63.41
2023-03-30T15:45:59.382Z,64.13
2023-03-30T15:48:34.604Z,65.28
2023-03-30T15:51:10.868Z,66.97
2023-03-30T15:53:45.156Z,68.18
2023-03-30T15:56:23.353Z,69.02
2023-03-30T15:58:54.556Z,69.10
2023-03-30T16:01:41.784Z,68.61
2023-03-30T16:04:17.205Z,67.86
2023-03-30T16:06:48.211Z,67.88
2023-03-30T16:09:18.940Z,68.12
2023-03-30T16:11:50.076Z,68.43
2023-03-30T16:14:23.056Z,68.66
2023-03-30T16:16:56.213Z,68.82
2023-03-30T16:19:26.657Z,68.72
2023-03-30T16:21:57.100Z,68.82
2023-03-30T16:24:27.848Z,68.74
2023-03-30T16:26:58.429Z,68.65
2023-03-30T16:29:28.935Z,68.62
2023-03-30T16:32:02.687Z,68.36
2023-03-30T16:34:33.304Z,68.26
2023-03-30T16:37:04.340Z,67.97
2023-03-30T16:39:35.028Z,67.68
2023-03-30T16:42:06.008Z,67.35
2023-03-30T16:44:36.614Z,67.34
2023-03-30T16:47:10.193Z,67.28
2023-03-30T16:49:40.876Z,67.51
2023-03-30T16:52:11.658Z,67.65
2023-03-30T16:54:42.285Z,67.76
2023-03-30T16:57:13.556Z,67.87
2023-03-30T16:59:44.292Z,68.07
2023-03-30T17:02:19.369Z,67.97
2023-03-30T17:04:50.121Z,68.11
2023-03-30T17:07:20.758Z,68.35
2023-03-30T17:09:51.338Z,68.70
2023-03-30T17:12:21.888Z,68.91
2023-03-30T17:14:54.711Z,69.01
2023-03-30T17:17:27.964Z,69.17
2023-03-30T17:19:59.451Z,69.16
2023-03-30T17:22:30.678Z,69.01
2023-03-30T17:25:01.170Z,68.99
2023-03-30T17:27:31.729Z,69.02
2023-03-30T17:30:02.268Z,69.04
2023-03-30T17:32:35.437Z,68.86
2023-03-30T17:35:06.383Z,69.02
2023-03-30T17:37:36.888Z,68.83
2023-03-30T17:40:17.695Z,68.93
2023-03-30T17:42:48.370Z,68.85
2023-03-30T17:45:21.260Z,69.06
2023-03-30T17:47:54.606Z,69.31
2023-03-30T17:50:28.510Z,69.52
2023-03-30T17:53:00.146Z,69.44
2023-03-30T17:55:32.671Z,69.22
2023-03-30T17:58:06.278Z,69.36
2023-03-30T18:00:37.265Z,69.11
2023-03-30T18:03:10.639Z,69.20
2023-03-30T18:05:41.594Z,69.25
2023-03-30T18:08:17.570Z,69.18
2023-03-30T18:10:51.771Z,69.17
2023-03-30T18:13:23.720Z,69.12
2023-03-30T18:15:55.986Z,68.95
2023-03-30T18:18:31.732Z,69.38
2023-03-30T18:21:05.582Z,68.93
2023-03-30T18:23:37.492Z,69.07
2023-03-30T18:26:12.140Z,69.24
2023-03-30T18:28:44.553Z,69.19
2023-03-30T18:31:15.739Z,69.29
2023-03-30T18:33:51.638Z,69.16
2023-03-30T18:36:24.593Z,69.23
2023-03-30T18:38:55.293Z,69.25
2023-03-30T18:41:26.079Z,69.09
2023-03-30T18:43:56.672Z,69.38
2023-03-30T18:46:27.341Z,69.46
2023-03-30T18:49:00.566Z,69.50
2023-03-30T18:51:32.540Z,69.62
2023-03-30T18:54:03.277Z,69.73
2023-03-30T18:56:34.054Z,70.01
2023-03-30T18:59:06.533Z,70.04
2023-03-30T19:01:38.300Z,70.11
2023-03-30T19:04:12.128Z,70.06
2023-03-30T19:06:44.534Z,70.14
2023-03-30T19:09:15.076Z,70.40
2023-03-30T19:11:45.586Z,70.24
2023-03-30T19:14:16.204Z,70.09
2023-03-30T19:16:46.845Z,70.15
2023-03-30T19:19:19.991Z,70.23
2023-03-30T19:21:55.126Z,70.11
2023-03-30T19:24:25.627Z,70.01
2023-03-30T19:26:56.357Z,69.81
2023-03-30T19:29:29.816Z,69.83
2023-03-30T19:32:00.382Z,69.69
2023-03-30T19:34:33.464Z,69.61
2023-03-30T19:37:03.996Z,69.66
2023-03-30T19:39:35.910Z,69.57
2023-03-30T19:42:08.788Z,69.55
2023-03-30T19:44:40.058Z,69.80
2023-03-30T19:47:10.726Z,69.59
2023-03-30T19:49:43.987Z,69.60
2023-03-30T19:52:14.600Z,69.67
2023-03-30T19:54:45.454Z,69.73
2023-03-30T19:57:16.872Z,69.93
2023-03-30T19:59:48.390Z,69.93
2023-03-30T20:02:19.398Z,69.83
2023-03-30T20:04:52.585Z,69.83
2023-03-30T20:07:24.622Z,69.94
2023-03-30T20:09:55.427Z,69.93
2023-03-30T20:12:26.430Z,70.27
2023-03-30T20:14:59.004Z,70.23
2023-03-30T20:17:30.127Z,70.59
2023-03-30T20:20:07.306Z,70.86
2023-03-30T20:22:39.040Z,71.01
2023-03-30T20:25:12.411Z,71.20
2023-03-30T20:27:43.115Z,71.41
2023-03-30T20:30:16.950Z,71.49
2023-03-30T20:33:03.946Z,71.59
2023-03-30T20:35:41.996Z,71.57
2023-03-30T20:38:12.762Z,71.40
2023-03-30T20:40:43.357Z,71.33
2023-03-30T20:43:13.981Z,71.13
2023-03-30T20:45:48.800Z,70.72
2023-03-30T20:48:26.442Z,70.75
2023-03-30T20:51:00.111Z,70.65
2023-03-30T20:53:31.693Z,70.58
2023-03-30T20:56:02.820Z,70.64
2023-03-30T20:58:33.857Z,70.87
2023-03-30T21:01:14.524Z,70.93
2023-03-30T21:03:50.174Z,70.81
2023-03-30T21:06:24.264Z,70.93
2023-03-30T21:08:55.012Z,71.26
2023-03-30T21:11:27.386Z,71.28
2023-03-30T21:13:58.590Z,71.64
2023-03-30T21:16:29.280Z,71.69
2023-03-30T21:18:59.862Z,71.92
2023-03-30T21:21:34.072Z,71.98
2023-03-30T21:24:04.617Z,73.81
2023-03-30T21:26:35.793Z,72.55
2023-03-30T21:29:06.840Z,72.48
2023-03-30T21:31:38.031Z,72.31
2023-03-30T21:34:10.854Z,72.42
2023-03-30T21:36:44.499Z,72.30
2023-03-30T21:39:15.137Z,72.44
2023-03-30T21:41:45.664Z,72.43
2023-03-30T21:44:16.535Z,72.58
2023-03-30T21:46:47.098Z,72.50
2023-03-30T21:49:17.763Z,72.44
2023-03-30T21:51:50.860Z,72.67
2023-03-30T21:54:22.162Z,72.54
2023-03-30T21:56:52.740Z,72.62
2023-03-30T21:59:23.493Z,72.46
2023-03-30T22:01:54.104Z,72.06
2023-03-30T22:04:24.755Z,72.26
2023-03-30T22:06:58.258Z,71.93
2023-03-30T22:09:28.970Z,71.86
2023-03-30T22:11:59.627Z,71.69
2023-03-30T22:14:30.215Z,71.68
2023-03-30T22:17:01.182Z,71.66
2023-03-30T22:19:32.074Z,71.53
2023-03-30T22:22:05.730Z,71.30
2023-03-30T22:24:36.506Z,71.23
2023-03-30T22:27:09.041Z,71.43
2023-03-30T22:29:39.634Z,71.37
2023-03-30T22:32:10.583Z,71.51
2023-03-30T22:34:41.297Z,71.85
2023-03-30T22:37:14.542Z,71.73
2023-03-30T22:39:45.120Z,72.00
2023-03-30T22:42:15.822Z,72.20
2023-03-30T22:44:47.083Z,72.27
2023-03-30T22:47:17.688Z,72.06
2023-03-30T22:49:50.554Z,72.15
2023-03-30T22:52:24.221Z,71.89
2023-03-30T22:54:55.032Z,71.95
2023-03-30T22:57:25.859Z,71.83
2023-03-30T22:59:56.820Z,71.71
2023-03-30T23:02:27.437Z,71.89
2023-03-30T23:04:58.104Z,71.77
2023-03-30T23:07:33.646Z,71.82
2023-03-30T23:10:04.973Z,71.96
2023-03-30T23:12:36.219Z,71.91
2023-03-30T23:15:07.512Z,72.03
2023-03-30T23:17:38.151Z,71.80
2023-03-30T23:20:11.771Z,71.94
2023-03-30T23:22:45.261Z,71.80
2023-03-30T23:25:15.908Z,71.82
2023-03-30T23:27:46.578Z,71.97
2023-03-30T23:30:18.021Z,71.75
2023-03-30T23:32:48.856Z,71.94
2023-03-30T23:35:19.826Z,71.90
2023-03-30T23:37:55.228Z,71.69
2023-03-30T23:40:25.819Z,72.07
2023-03-30T23:42:57.071Z,71.74
2023-03-30T23:45:27.894Z,72.13
2023-03-30T23:47:59.602Z,72.10
2023-03-30T23:50:30.282Z,72.05
2023-03-30T23:53:03.485Z,71.98
2023-03-30T23:55:33.953Z,72.07
2023-03-30T23:58:04.716Z,72.07
